Time;durP1;ratioP1;P1;durP2;ratioP2;P2;SDS_P1;SDS_P2;PMS_P1;PMS_P2;Temp;Humidity;BMP_temperature;BMP_pressure;BME280_temperature;BME280_humidity;BME280_pressure;Samples;Min_cycle;Max_cycle;Signal;HPM_P1;HPM_P2
2021/09/06 00:02:05;;;;;;;3.43;2.90;;;17.00;99.90;;;;;;5077155;28;20480;-71
2021/09/06 00:04:33;;;;;;;3.37;2.63;;;17.00;99.90;;;;;;5076850;28;20780;-71
2021/09/06 00:07:00;;;;;;;3.37;2.70;;;16.90;99.90;;;;;;5076846;28;20458;-71
2021/09/06 00:09:28;;;;;;;3.40;2.90;;;16.90;99.90;;;;;;5077361;28;20484;-71
2021/09/06 00:11:58;;;;;;;3.30;2.97;;;16.80;99.90;;;;;;5077229;28;20789;-71
2021/09/06 00:14:25;;;;;;;7.27;3.53;;;16.80;99.90;;;;;;5077230;28;20467;-71
2021/09/06 00:16:51;;;;;;;4.93;3.47;;;16.80;99.90;;;;;;5076592;28;20462;-71
2021/09/06 00:19:20;;;;;;;4.93;2.70;;;16.70;99.90;;;;;;5076808;28;20802;-71
2021/09/06 00:21:46;;;;;;;4.63;2.60;;;16.70;99.90;;;;;;5076747;28;20458;-71
2021/09/06 00:24:13;;;;;;;5.60;2.80;;;16.70;99.90;;;;;;5076837;28;20466;-71
2021/09/06 00:26:42;;;;;;;3.57;2.70;;;16.60;99.90;;;;;;5076237;28;20481;-71
2021/09/06 00:29:09;;;;;;;4.27;2.87;;;16.50;99.90;;;;;;5076874;28;20454;-70
2021/09/06 00:31:36;;;;;;;3.30;3.00;;;16.50;1.00;;;;;;5076993;28;20450;-71
2021/09/06 00:34:02;;;;;;;4.00;2.93;;;16.50;1.00;;;;;;5077221;28;20821;-71
2021/09/06 00:36:29;;;;;;;4.40;3.10;;;16.50;1.00;;;;;;5076589;28;20451;-71
2021/09/06 00:38:56;;;;;;;3.63;2.60;;;16.40;1.00;;;;;;5076870;28;20477;-71
2021/09/06 00:41:24;;;;;;;3.53;2.97;;;16.40;1.00;;;;;;5076106;28;20962;-71
2021/09/06 00:43:53;;;;;;;3.93;3.13;;;16.40;1.00;;;;;;5075830;28;20458;-71
2021/09/06 00:46:22;;;;;;;4.43;3.60;;;16.30;1.00;;;;;;5076751;28;20489;-70
2021/09/06 00:48:51;;;;;;;3.70;3.10;;;16.30;1.00;;;;;;5076786;28;20557;-71
2021/09/06 00:51:22;;;;;;;4.10;2.97;;;16.20;1.00;;;;;;5076998;28;20781;-71
2021/09/06 00:53:49;;;;;;;4.87;2.90;;;16.20;1.00;;;;;;5077513;28;20453;-71
2021/09/06 00:56:17;;;;;;;6.23;2.70;;;16.20;1.00;;;;;;5076571;28;20451;-71
2021/09/06 00:58:45;;;;;;;3.70;3.10;;;16.20;1.00;;;;;;5076809;28;20769;-71
2021/09/06 01:01:13;;;;;;;3.83;3.10;;;16.10;1.00;;;;;;5077040;28;20772;-71
2021/09/06 01:03:42;;;;;;;3.83;2.83;;;16.10;1.00;;;;;;5076569;28;20454;-71
2021/09/06 01:06:09;;;;;;;4.40;3.33;;;16.10;1.00;;;;;;5076480;28;20486;-71
2021/09/06 01:08:35;;;;;;;3.77;3.20;;;16.00;1.00;;;;;;5076713;28;20455;-71
2021/09/06 01:11:02;;;;;;;4.00;2.97;;;16.00;1.00;;;;;;5076557;28;20469;-71
2021/09/06 01:13:29;;;;;;;4.05;3.30;;;16.00;1.00;;;;;;5076731;28;20537;-71
2021/09/06 01:15:56;;;;;;;3.53;2.83;;;16.00;1.00;;;;;;5077113;28;20207;-71
2021/09/06 01:18:24;;;;;;;3.77;3.17;;;16.00;1.00;;;;;;5076421;28;20911;-71
2021/09/06 01:20:50;;;;;;;3.50;3.03;;;16.00;1.00;;;;;;5075940;28;20469;-71
2021/09/06 01:23:17;;;;;;;5.70;3.73;;;15.90;1.00;;;;;;5076484;28;20454;-71
2021/09/06 01:25:44;;;;;;;3.07;2.77;;;15.90;1.00;;;;;;5075480;28;20478;-71
2021/09/06 01:28:12;;;;;;;5.80;3.10;;;15.90;1.00;;;;;;5074722;28;20643;-71
2021/09/06 01:30:40;;;;;;;2.60;2.40;;;15.90;1.00;;;;;;5075556;28;20469;-71
2021/09/06 01:33:07;;;;;;;4.97;2.57;;;15.80;1.00;;;;;;5075486;28;20470;-71
2021/09/06 01:35:33;;;;;;;3.70;3.30;;;15.80;10.90;;;;;;5075372;28;20454;-71
2021/09/06 01:38:00;;;;;;;4.70;2.93;;;15.80;10.60;;;;;;5075125;28;20461;-71
2021/09/06 01:40:27;;;;;;;4.10;3.43;;;15.80;99.90;;;;;;5075210;28;20494;-71
2021/09/06 01:42:53;;;;;;;5.95;3.13;;;15.80;99.90;;;;;;5075350;28;20465;-71
2021/09/06 01:45:22;;;;;;;3.57;2.83;;;15.80;99.90;;;;;;5075281;28;20675;-71
2021/09/06 01:47:48;;;;;;;4.40;2.87;;;15.80;99.90;;;;;;5075647;28;20806;-71
2021/09/06 01:50:15;;;;;;;3.27;2.73;;;15.70;99.90;;;;;;5075986;28;20921;-71
2021/09/06 01:52:42;;;;;;;3.20;2.90;;;15.70;99.90;;;;;;5075177;28;20462;-71
2021/09/06 01:55:09;;;;;;;3.50;3.03;;;15.70;99.90;;;;;;5075101;28;20462;-70
2021/09/06 01:57:36;;;;;;;3.50;2.90;;;15.70;99.90;;;;;;5075838;28;20815;-71
2021/09/06 02:00:04;;;;;;;3.70;3.07;;;15.70;99.90;;;;;;5076134;28;20786;-71
2021/09/06 02:02:34;;;;;;;9.20;3.40;;;15.70;1.00;;;;;;5075522;28;20470;-70
2021/09/06 02:05:01;;;;;;;2.83;2.42;;;15.60;1.00;;;;;;5076561;28;20458;-70
2021/09/06 02:07:28;;;;;;;3.53;2.73;;;15.60;1.00;;;;;;5075471;28;20220;-70
2021/09/06 02:09:55;;;;;;;3.70;3.30;;;15.60;1.00;;;;;;5075578;28;20473;-70
2021/09/06 02:12:21;;;;;;;3.80;3.07;;;15.60;1.00;;;;;;5075860;28;20921;-70
2021/09/06 02:14:48;;;;;;;4.00;3.00;;;15.50;1.00;;;;;;5075803;28;20458;-70
2021/09/06 02:17:15;;;;;;;3.10;2.80;;;15.50;1.00;;;;;;5076338;28;20465;-70
2021/09/06 02:19:43;;;;;;;4.60;3.13;;;15.40;99.90;;;;;;5076350;28;20461;-70
2021/09/06 02:22:09;;;;;;;5.20;2.80;;;15.40;5.50;;;;;;5077049;28;20465;-70
2021/09/06 02:24:36;;;;;;;3.43;2.73;;;15.40;99.90;;;;;;5076338;28;20465;-70
2021/09/06 02:27:03;;;;;;;5.27;3.30;;;15.30;99.90;;;;;;5077020;28;20478;-71
2021/09/06 02:29:30;;;;;;;4.87;3.10;;;15.30;99.90;;;;;;5076331;28;20462;-70
2021/09/06 02:31:57;;;;;;;3.30;2.77;;;15.20;99.90;;;;;;5078898;28;20454;-71
2021/09/06 02:34:23;;;;;;;4.73;4.07;;;15.20;99.90;;;;;;5077278;28;20946;-71
2021/09/06 02:36:52;;;;;;;3.90;3.20;;;15.20;99.90;;;;;;5078193;28;20464;-71
2021/09/06 02:39:18;;;;;;;4.93;3.10;;;15.20;99.90;;;;;;5077420;28;20208;-70
2021/09/06 02:41:46;;;;;;;4.67;2.70;;;15.20;99.90;;;;;;5077126;28;20485;-72
2021/09/06 02:44:13;;;;;;;5.93;3.67;;;15.20;99.90;;;;;;5077132;28;20488;-71
2021/09/06 02:46:40;;;;;;;7.30;3.20;;;15.10;99.90;;;;;;5077067;28;20481;-70
2021/09/06 02:49:06;;;;;;;4.27;3.27;;;15.10;99.90;;;;;;5077081;28;20945;-71
2021/09/06 02:51:33;;;;;;;4.03;3.47;;;15.10;99.90;;;;;;5076495;28;20454;-72
2021/09/06 02:54:04;;;;;;;5.80;3.60;;;15.10;99.90;;;;;;5075907;28;20454;-72
2021/09/06 02:56:31;;;;;;;6.35;3.78;;;15.00;99.90;;;;;;5079922;28;20434;-71
2021/09/06 02:58:57;;;;;;;6.03;4.33;;;15.00;99.90;;;;;;5078138;28;20211;-72
2021/09/06 03:01:24;;;;;;;5.97;3.90;;;15.00;99.90;;;;;;5079095;28;20508;-72
2021/09/06 03:03:51;;;;;;;7.50;3.50;;;15.00;99.90;;;;;;5085614;28;20469;-71
2021/09/06 03:06:17;;;;;;;3.53;3.07;;;15.00;99.90;;;;;;5076660;28;20493;-71
2021/09/06 03:08:44;;;;;;;8.00;3.20;;;14.90;99.90;;;;;;5079854;28;20453;-71
2021/09/06 03:11:12;;;;;;;4.00;3.23;;;14.90;99.90;;;;;;5079688;28;20474;-71
2021/09/06 03:13:39;;;;;;;3.33;3.03;;;14.90;99.90;;;;;;5080281;28;20918;-71
2021/09/06 03:16:06;;;;;;;4.83;3.47;;;14.80;99.90;;;;;;5080280;28;20461;-71
2021/09/06 03:18:32;;;;;;;5.80;3.57;;;14.90;99.90;;;;;;5080103;28;20469;-71
2021/09/06 03:20:59;;;;;;;4.27;3.50;;;14.80;99.90;;;;;;5080385;28;20477;-71
2021/09/06 03:23:26;;;;;;;6.03;3.80;;;14.80;99.90;;;;;;5079907;28;20511;-71
2021/09/06 03:25:52;;;;;;;6.80;4.00;;;14.80;99.90;;;;;;5080769;28;20833;-71
2021/09/06 03:28:23;;;;;;;4.77;3.67;;;14.80;99.90;;;;;;5080455;28;20473;-71
2021/09/06 03:30:50;;;;;;;4.97;3.50;;;14.70;99.90;;;;;;5080159;28;20925;-71
2021/09/06 03:33:17;;;;;;;8.37;3.57;;;14.70;99.90;;;;;;5081124;28;20461;-71
2021/09/06 03:35:44;;;;;;;4.80;3.87;;;14.70;99.90;;;;;;5080624;28;20462;-71
2021/09/06 03:38:11;;;;;;;5.80;3.50;;;14.70;99.90;;;;;;5081013;28;20454;-71
2021/09/06 03:40:38;;;;;;;5.10;3.60;;;14.60;99.90;;;;;;5080942;28;20481;-71
2021/09/06 03:43:06;;;;;;;5.87;4.10;;;14.60;99.90;;;;;;5080808;28;20455;-71
2021/09/06 03:45:35;;;;;;;4.00;3.60;;;14.60;99.90;;;;;;5080417;28;20458;-71
2021/09/06 03:48:02;;;;;;;6.07;3.80;;;14.60;99.90;;;;;;5081375;28;20478;-71
2021/09/06 03:50:28;;;;;;;4.80;3.17;;;14.50;99.90;;;;;;5081527;28;20489;-71
2021/09/06 03:52:55;;;;;;;5.13;3.57;;;14.50;99.90;;;;;;5080843;28;20208;-71
2021/09/06 03:55:22;;;;;;;5.50;4.07;;;14.60;99.90;;;;;;5080866;28;20469;-71
2021/09/06 03:57:48;;;;;;;5.67;4.20;;;14.50;99.90;;;;;;5080902;28;20991;-72
2021/09/06 04:00:15;;;;;;;6.40;3.53;;;14.50;99.90;;;;;;5081216;28;20458;-71
2021/09/06 04:02:43;;;;;;;4.47;3.80;;;14.50;99.90;;;;;;5080903;28;20219;-71
2021/09/06 04:05:11;;;;;;;4.90;3.63;;;14.50;99.90;;;;;;5081038;28;20450;-71
2021/09/06 04:07:41;;;;;;;9.43;4.03;;;14.50;99.90;;;;;;5080449;28;20485;-71
2021/09/06 04:10:09;;;;;;;4.10;3.70;;;14.40;99.90;;;;;;5079802;28;20458;-71
2021/09/06 04:12:36;;;;;;;4.63;4.10;;;14.40;99.90;;;;;;5080074;28;20454;-71
2021/09/06 04:15:03;;;;;;;4.97;3.80;;;14.30;99.90;;;;;;5079770;28;20454;-71
2021/09/06 04:17:33;;;;;;;6.15;4.00;;;14.30;99.90;;;;;;5079437;28;20480;-71
2021/09/06 04:20:01;;;;;;;3.97;3.55;;;14.30;99.90;;;;;;5078845;28;20196;-72
2021/09/06 04:22:28;;;;;;;4.60;3.60;;;14.30;99.90;;;;;;5079408;28;20204;-71
2021/09/06 04:24:54;;;;;;;4.67;3.23;;;14.30;99.90;;;;;;5080103;28;20462;-71
2021/09/06 04:27:23;;;;;;;6.10;4.30;;;14.30;99.90;;;;;;5080277;28;20481;-71
2021/09/06 04:29:49;;;;;;;4.77;3.80;;;14.30;99.90;;;;;;5080780;28;20454;-71
2021/09/06 04:32:16;;;;;;;4.43;3.45;;;14.30;99.90;;;;;;5081017;28;20454;-71
2021/09/06 04:34:43;;;;;;;4.87;4.27;;;14.30;99.90;;;;;;5080193;28;20215;-71
2021/09/06 04:37:13;;;;;;;4.15;3.75;;;14.30;99.90;;;;;;5079981;28;20446;-71
2021/09/06 04:39:39;;;;;;;5.93;4.13;;;14.30;99.90;;;;;;5079548;28;20613;-71
2021/09/06 04:42:06;;;;;;;8.75;4.80;;;14.30;99.90;;;;;;5079813;28;20482;-71
2021/09/06 04:44:33;;;;;;;4.82;4.13;;;14.30;99.90;;;;;;5080319;28;20269;-72
2021/09/06 04:47:00;;;;;;;6.47;4.93;;;14.30;99.90;;;;;;5081129;28;20334;-71
2021/09/06 04:49:26;;;;;;;5.50;4.20;;;14.30;99.90;;;;;;5081089;28;20455;-71
2021/09/06 04:51:53;;;;;;;5.80;4.10;;;14.30;99.90;;;;;;5081776;28;20469;-71
2021/09/06 04:54:21;;;;;;;10.43;3.80;;;14.30;99.90;;;;;;5080894;28;20837;-71
2021/09/06 04:56:48;;;;;;;5.90;4.43;;;14.30;99.90;;;;;;5080794;28;20446;-71
2021/09/06 04:59:16;;;;;;;5.37;4.37;;;14.30;99.90;;;;;;5081525;28;20464;-71
2021/09/06 05:01:43;;;;;;;5.07;4.40;;;14.20;99.90;;;;;;5082109;28;20458;-71
2021/09/06 05:04:09;;;;;;;7.37;4.97;;;14.20;99.90;;;;;;5082257;28;20461;-71
2021/09/06 05:06:36;;;;;;;5.40;4.57;;;14.20;99.90;;;;;;5082401;28;20479;-71
2021/09/06 05:09:03;;;;;;;6.50;4.30;;;14.20;99.90;;;;;;5083917;28;20447;-71
2021/09/06 05:11:33;;;;;;;4.37;3.97;;;14.20;99.90;;;;;;5082649;28;20454;-71
2021/09/06 05:14:00;;;;;;;5.70;4.70;;;14.20;99.90;;;;;;5084252;28;20451;-71
2021/09/06 05:16:31;;;;;;;6.27;4.47;;;14.20;99.90;;;;;;5085811;28;20461;-71
2021/09/06 05:18:58;;;;;;;5.97;4.93;;;14.30;99.90;;;;;;5084896;28;20462;-71
2021/09/06 05:21:25;;;;;;;6.03;4.40;;;14.30;99.90;;;;;;5084590;28;20462;-71
2021/09/06 05:23:52;;;;;;;5.82;4.47;;;14.20;99.90;;;;;;5082026;28;20465;-71
2021/09/06 05:26:19;;;;;;;5.80;4.63;;;14.30;99.90;;;;;;5081436;28;20238;-71
2021/09/06 05:28:47;;;;;;;6.13;4.32;;;14.30;99.90;;;;;;5080735;28;20454;-71
2021/09/06 05:31:14;;;;;;;5.43;4.13;;;14.40;99.90;;;;;;5080498;28;20219;-71
2021/09/06 05:33:41;;;;;;;6.50;3.60;;;14.50;99.90;;;;;;5081171;28;20454;-72
2021/09/06 05:36:09;;;;;;;8.03;5.57;;;14.50;99.90;;;;;;5081721;28;20454;-72
2021/09/06 05:38:36;;;;;;;6.93;5.03;;;14.60;99.90;;;;;;5080571;28;20545;-71
2021/09/06 05:41:03;;;;;;;6.93;4.23;;;14.60;99.90;;;;;;5080253;28;20485;-71
2021/09/06 05:43:32;;;;;;;5.28;4.28;;;14.60;99.90;;;;;;5079832;28;20466;-71
2021/09/06 05:46:00;;;;;;;5.20;4.70;;;14.60;99.90;;;;;;5079742;28;20211;-71
2021/09/06 05:48:28;;;;;;;6.37;4.70;;;14.70;99.90;;;;;;5079629;28;20504;-71
2021/09/06 05:50:55;;;;;;;5.75;4.75;;;14.70;99.90;;;;;;5079375;28;20454;-71
2021/09/06 05:53:22;;;;;;;8.83;6.03;;;14.70;99.90;;;;;;5078506;28;20226;-72
2021/09/06 05:55:49;;;;;;;5.10;4.70;;;14.80;99.90;;;;;;5078754;28;20462;-71
2021/09/06 05:58:15;;;;;;;6.82;4.30;;;14.80;99.90;;;;;;5079132;28;20461;-72
2021/09/06 06:00:44;;;;;;;4.67;4.20;;;14.80;99.90;;;;;;5079642;28;20215;-71
2021/09/06 06:03:12;;;;;;;6.73;4.30;;;14.90;99.90;;;;;;5080031;28;20463;-71
2021/09/06 06:05:39;;;;;;;7.00;5.07;;;14.90;99.90;;;;;;5080021;28;20457;-71
2021/09/06 06:08:06;;;;;;;7.87;4.40;;;14.90;99.90;;;;;;5080440;28;20488;-71
2021/09/06 06:10:32;;;;;;;6.90;4.20;;;14.90;99.90;;;;;;5079364;28;20466;-71
2021/09/06 06:13:01;;;;;;;6.83;4.53;;;14.90;99.90;;;;;;5079342;28;20465;-71
2021/09/06 06:15:28;;;;;;;7.10;4.60;;;14.90;99.90;;;;;;5079686;28;20744;-72
2021/09/06 06:17:54;;;;;;;6.13;4.60;;;14.90;99.90;;;;;;5079081;28;20549;-71
2021/09/06 06:20:24;;;;;;;6.93;5.17;;;14.90;99.90;;;;;;5078748;28;20469;-71
2021/09/06 06:22:50;;;;;;;7.47;4.53;;;15.00;99.90;;;;;;5078905;28;20481;-72
2021/09/06 06:25:17;;;;;;;4.90;4.27;;;15.00;99.90;;;;;;5079450;28;20470;-72
2021/09/06 06:27:44;;;;;;;10.88;4.82;;;15.00;99.90;;;;;;5079364;28;20485;-72
2021/09/06 06:30:14;;;;;;;15.80;6.90;;;15.10;99.90;;;;;;5079920;28;20204;-72
2021/09/06 06:32:41;;;;;;;6.07;3.90;;;15.20;99.90;;;;;;5078529;28;20466;-71
2021/09/06 06:35:09;;;;;;;6.20;4.40;;;15.20;99.90;;;;;;5078742;28;20469;-71
2021/09/06 06:37:37;;;;;;;5.67;4.17;;;15.30;99.90;;;;;;5079087;28;20207;-71
2021/09/06 06:40:05;;;;;;;4.30;3.90;;;15.40;99.90;;;;;;5078748;28;20450;-71
2021/09/06 06:42:32;;;;;;;5.50;4.60;;;15.40;99.90;;;;;;5076504;28;20450;-73
2021/09/06 06:44:59;;;;;;;30.03;6.57;;;15.50;99.90;;;;;;5078106;28;20458;-73
2021/09/06 06:47:26;;;;;;;8.47;5.30;;;15.50;99.90;;;;;;5078046;28;20474;-73
2021/09/06 06:49:52;;;;;;;6.40;4.53;;;15.60;99.90;;;;;;5078094;28;20458;-74
2021/09/06 06:52:19;;;;;;;11.00;5.20;;;15.60;99.90;;;;;;5077519;28;20928;-73
2021/09/06 06:54:47;;;;;;;10.60;3.87;;;15.60;99.90;;;;;;5077648;28;20926;-73
2021/09/06 06:57:14;;;;;;;4.90;4.10;;;15.60;99.90;;;;;;5077068;28;20913;-73
2021/09/06 06:59:41;;;;;;;5.60;3.90;;;15.70;99.90;;;;;;5077641;28;20458;-73
2021/09/06 07:02:07;;;;;;;4.50;3.53;;;15.70;99.90;;;;;;5077871;28;20460;-73
2021/09/06 07:04:34;;;;;;;6.77;3.77;;;15.70;99.90;;;;;;5077497;28;20925;-73
2021/09/06 07:07:01;;;;;;;7.77;4.77;;;15.70;99.90;;;;;;5077490;28;20454;-73
2021/09/06 07:09:27;;;;;;;6.43;4.60;;;15.80;99.90;;;;;;5077408;28;20442;-73
2021/09/06 07:11:55;;;;;;;6.10;4.33;;;15.80;99.90;;;;;;5077405;28;20787;-72
2021/09/06 07:14:25;;;;;;;7.37;4.47;;;15.90;99.90;;;;;;5077556;28;20465;-72
2021/09/06 07:16:54;;;;;;;7.97;4.43;;;16.00;99.90;;;;;;5077628;28;20515;-72
2021/09/06 07:19:21;;;;;;;5.60;4.50;;;16.00;99.90;;;;;;5077054;28;20648;-72
2021/09/06 07:21:48;;;;;;;11.83;5.30;;;16.10;99.90;;;;;;5077429;28;20454;-72
2021/09/06 07:24:14;;;;;;;4.40;4.00;;;16.20;99.90;;;;;;5077675;28;20453;-72
2021/09/06 07:26:41;;;;;;;7.17;4.97;;;16.20;99.90;;;;;;5077362;28;20772;-73
2021/09/06 07:29:09;;;;;;;7.13;5.07;;;16.20;99.90;;;;;;5077119;28;20482;-72
2021/09/06 07:31:36;;;;;;;6.50;4.73;;;16.20;99.90;;;;;;5077626;28;20468;-73
2021/09/06 07:34:03;;;;;;;5.47;4.10;;;16.20;99.90;;;;;;5077573;28;20458;-73
2021/09/06 07:36:35;;;;;;;7.63;5.00;;;16.20;99.90;;;;;;5077262;28;20454;-72
2021/09/06 07:39:01;;;;;;;6.83;5.17;;;16.20;99.90;;;;;;5076979;28;20821;-72
2021/09/06 07:41:30;;;;;;;6.07;4.43;;;16.20;99.90;;;;;;5076942;28;20543;-72
2021/09/06 07:43:56;;;;;;;11.47;5.50;;;16.20;99.90;;;;;;5077159;28;20454;-72
2021/09/06 07:46:24;;;;;;;11.20;5.50;;;16.30;99.90;;;;;;5077014;28;20465;-73
2021/09/06 07:48:54;;;;;;;9.03;4.80;;;16.40;99.90;;;;;;5077133;28;20489;-72
2021/09/06 07:51:21;;;;;;;5.43;4.73;;;16.50;99.90;;;;;;5077183;28;20458;-72
2021/09/06 07:53:47;;;;;;;5.53;4.40;;;16.50;99.90;;;;;;5075247;28;20462;-72
2021/09/06 07:56:14;;;;;;;7.97;5.73;;;16.60;99.90;;;;;;5077134;28;20454;-72
2021/09/06 07:58:41;;;;;;;7.80;5.20;;;16.70;99.90;;;;;;5076717;28;20469;-73
2021/09/06 08:01:08;;;;;;;6.03;4.30;;;16.70;99.90;;;;;;5076599;28;20470;-73
2021/09/06 08:03:36;;;;;;;8.53;4.97;;;16.70;99.90;;;;;;5076738;28;20458;-71
2021/09/06 08:06:02;;;;;;;9.47;5.10;;;16.80;99.90;;;;;;5076398;28;20451;-73
2021/09/06 08:08:29;;;;;;;7.40;4.97;;;16.80;99.90;;;;;;5076863;28;20895;-73
2021/09/06 08:10:56;;;;;;;6.57;5.07;;;16.90;99.90;;;;;;5076287;28;20636;-73
2021/09/06 08:13:23;;;;;;;6.90;5.77;;;17.00;99.90;;;;;;5076484;28;20469;-74
2021/09/06 08:15:51;;;;;;;9.63;5.23;;;17.10;99.90;;;;;;5077005;28;20488;-73
2021/09/06 08:18:18;;;;;;;29.37;6.47;;;17.10;99.90;;;;;;5076814;28;20519;-74
2021/09/06 08:20:46;;;;;;;11.45;5.45;;;17.10;99.90;;;;;;5076400;28;20937;-74
2021/09/06 08:23:13;;;;;;;6.20;5.17;;;17.20;99.90;;;;;;5075914;28;20200;-72
2021/09/06 08:25:44;;;;;;;8.40;5.10;;;17.30;99.90;;;;;;5076173;28;20458;-73
2021/09/06 08:28:11;;;;;;;8.87;4.60;;;17.30;99.90;;;;;;5076367;28;20549;-73
2021/09/06 08:30:41;;;;;;;6.93;5.03;;;17.40;99.90;;;;;;5076366;28;20462;-73
2021/09/06 08:33:07;;;;;;;7.40;4.30;;;17.50;99.90;;;;;;5076075;28;20481;-73
2021/09/06 08:35:34;;;;;;;7.20;4.93;;;17.60;99.90;;;;;;5076289;28;20911;-73
2021/09/06 08:38:02;;;;;;;10.17;5.57;;;17.70;99.90;;;;;;5076587;28;20461;-73
2021/09/06 08:40:29;;;;;;;10.13;5.63;;;17.80;99.90;;;;;;5076805;28;20543;-73
2021/09/06 08:42:57;;;;;;;8.18;5.63;;;17.80;99.90;;;;;;5076236;28;20760;-73
2021/09/06 08:45:25;;;;;;;11.20;6.30;;;17.80;99.90;;;;;;5075902;28;20204;-73
2021/09/06 08:47:53;;;;;;;6.80;4.90;;;17.90;99.90;;;;;;5075899;28;20513;-73
2021/09/06 08:50:20;;;;;;;6.60;5.43;;;17.90;99.90;;;;;;5076720;28;20462;-73
2021/09/06 08:52:47;;;;;;;7.60;5.70;;;18.00;99.90;;;;;;5076376;28;20454;-73
2021/09/06 08:55:15;;;;;;;6.90;5.17;;;18.10;99.90;;;;;;5075710;28;20469;-72
2021/09/06 08:57:41;;;;;;;9.10;5.40;;;18.20;99.90;;;;;;5075825;28;20465;-73
2021/09/06 09:00:11;;;;;;;7.30;4.70;;;18.30;99.90;;;;;;5075537;28;20458;-72
2021/09/06 09:02:40;;;;;;;8.23;5.80;;;18.40;99.90;;;;;;5075619;28;20841;-73
2021/09/06 09:05:09;;;;;;;8.97;6.23;;;18.40;99.90;;;;;;5074774;28;20469;-73
2021/09/06 09:07:37;;;;;;;7.80;5.60;;;18.50;99.90;;;;;;5075074;28;20855;-73
2021/09/06 09:10:08;;;;;;;7.00;5.40;;;18.60;99.90;;;;;;5075318;28;20455;-73
2021/09/06 09:12:38;;;;;;;6.30;5.38;;;18.70;99.90;;;;;;5076039;28;20473;-73
2021/09/06 09:15:07;;;;;;;9.40;6.30;;;18.80;1.00;;;;;;5077777;28;20619;-73
2021/09/06 09:17:35;;;;;;;8.50;5.60;;;18.90;1.00;;;;;;5076424;28;20793;-73
2021/09/06 09:20:04;;;;;;;7.80;5.63;;;19.00;1.00;;;;;;5076240;28;20860;-72
2021/09/06 09:22:33;;;;;;;7.70;5.63;;;19.10;1.00;;;;;;5076204;28;20242;-73
2021/09/06 09:25:01;;;;;;;7.00;5.03;;;19.20;1.00;;;;;;5076276;28;20458;-73
2021/09/06 09:27:33;;;;;;;8.57;5.23;;;19.30;1.00;;;;;;5075268;28;20461;-72
2021/09/06 09:30:02;;;;;;;8.40;5.73;;;19.40;1.00;;;;;;5075440;28;20457;-73
2021/09/06 09:32:32;;;;;;;10.38;6.30;;;19.50;1.00;;;;;;5075268;28;20462;-72
2021/09/06 09:34:59;;;;;;;11.20;6.87;;;19.50;1.00;;;;;;5075467;28;20223;-72
2021/09/06 09:37:28;;;;;;;10.53;7.00;;;19.50;1.00;;;;;;5075262;28;20465;-72
2021/09/06 09:39:57;;;;;;;13.60;6.70;;;19.50;1.00;;;;;;5074893;28;20763;-73
2021/09/06 09:42:26;;;;;;;9.07;6.40;;;19.50;1.00;;;;;;5074698;28;20433;-73
2021/09/06 09:44:54;;;;;;;8.40;6.20;;;19.50;1.00;;;;;;5075237;28;20214;-74
2021/09/06 09:47:25;;;;;;;9.10;7.22;;;19.50;1.00;;;;;;5074948;28;20321;-71
2021/09/06 09:49:54;;;;;;;8.50;6.80;;;19.70;1.00;;;;;;5075232;28;20208;-73
2021/09/06 09:52:23;;;;;;;13.40;6.50;;;19.80;1.00;;;;;;5075018;28;20458;-73
2021/09/06 09:54:54;;;;;;;7.27;5.70;;;19.90;1.00;;;;;;5074917;28;20505;-72
2021/09/06 09:57:25;;;;;;;7.87;6.17;;;20.00;1.00;;;;;;5074986;28;20443;-73
2021/09/06 09:59:51;;;;;;;7.70;6.30;;;20.00;1.00;;;;;;5075159;28;20468;-73
2021/09/06 10:02:27;;;;;;;8.03;6.50;;;20.10;1.00;;;;;;5074539;28;20772;-73
2021/09/06 10:04:56;;;;;;;7.27;5.37;;;20.10;1.00;;;;;;5075777;28;20442;-73
2021/09/06 10:07:26;;;;;;;6.93;5.90;;;20.10;1.00;;;;;;5074749;28;20454;-73
2021/09/06 10:09:53;;;;;;;10.73;6.53;;;20.20;1.00;;;;;;5075851;28;20481;-72
2021/09/06 10:12:22;;;;;;;10.48;6.28;;;20.30;1.00;;;;;;5075384;28;20571;-73
2021/09/06 10:14:51;;;;;;;8.57;5.50;;;20.40;1.00;;;;;;5076671;28;20215;-73
2021/09/06 10:17:17;;;;;;;6.40;5.60;;;20.50;1.00;;;;;;5077429;28;20458;-73
2021/09/06 10:19:49;;;;;;;10.00;6.57;;;20.60;99.90;;;;;;5074833;28;20543;-70
2021/09/06 10:22:23;;;;;;;8.73;5.60;;;20.70;99.90;;;;;;5075013;28;20439;-70
2021/09/06 10:24:57;;;;;;;13.17;6.60;;;20.80;99.90;;;;;;5075601;28;20469;-70
2021/09/06 10:27:24;;;;;;;6.80;6.10;;;20.90;99.90;;;;;;5075787;28;20458;-71
2021/09/06 10:29:59;;;;;;;7.13;5.97;;;20.90;99.90;;;;;;5075708;28;20486;-72
2021/09/06 10:32:35;;;;;;;9.20;6.30;;;20.90;99.90;;;;;;5075774;28;20439;-71
2021/09/06 10:35:05;;;;;;;6.90;6.10;;;21.00;99.90;;;;;;5076753;28;20449;-71
2021/09/06 10:37:35;;;;;;;8.27;6.23;;;21.10;99.90;;;;;;5075478;28;20454;-71
2021/09/06 10:40:05;;;;;;;9.23;6.60;;;21.10;99.90;;;;;;5074452;28;20910;-71
2021/09/06 10:42:34;;;;;;;8.20;6.67;;;21.20;99.90;;;;;;5076603;28;20438;-73
2021/09/06 10:45:02;;;;;;;11.30;7.67;;;21.20;99.90;;;;;;5079960;28;20473;-71
2021/09/06 10:47:36;;;;;;;17.27;7.15;;;21.20;99.90;;;;;;5081051;28;20454;-71
2021/09/06 10:50:17;;;;;;;8.13;7.27;;;21.20;99.90;;;;;;5078719;28;20226;-71
2021/09/06 10:52:45;;;;;;;10.80;6.50;;;21.20;99.90;;;;;;5076821;28;20442;-71
2021/09/06 10:55:14;;;;;;;9.70;6.73;;;21.20;99.90;;;;;;5074699;28;20933;-71
2021/09/06 10:57:42;;;;;;;7.00;6.00;;;21.30;99.90;;;;;;5074465;28;20468;-69
2021/09/06 11:00:16;;;;;;;7.97;6.23;;;21.30;99.90;;;;;;5074917;28;20455;-71
2021/09/06 11:02:43;;;;;;;8.30;6.57;;;21.40;99.90;;;;;;5074523;28;20442;-71
2021/09/06 11:05:17;;;;;;;9.90;7.80;;;21.50;99.90;;;;;;5075187;28;20473;-71
2021/09/06 11:07:44;;;;;;;10.20;6.78;;;21.70;99.90;;;;;;5074625;28;20540;-71
2021/09/06 11:10:13;;;;;;;10.47;6.90;;;21.80;99.90;;;;;;5074433;28;20230;-70
2021/09/06 11:12:40;;;;;;;10.43;6.70;;;21.90;99.90;;;;;;5074169;28;20454;-71
2021/09/06 11:15:08;;;;;;;8.90;7.13;;;22.00;99.90;;;;;;5074075;28;20464;-71
2021/09/06 11:17:35;;;;;;;8.80;7.00;;;22.10;99.90;;;;;;5073790;28;20867;-72
2021/09/06 11:20:02;;;;;;;7.83;6.53;;;22.20;99.90;;;;;;5073804;28;20469;-71
2021/09/06 11:22:31;;;;;;;8.37;7.20;;;22.30;99.90;;;;;;5073541;28;20458;-71
2021/09/06 11:24:59;;;;;;;10.57;7.00;;;22.40;99.90;;;;;;5073878;28;20513;-71
2021/09/06 11:27:29;;;;;;;7.93;6.03;;;22.70;99.90;;;;;;5073386;28;20458;-71
2021/09/06 11:29:56;;;;;;;7.53;6.30;;;23.00;99.90;;;;;;5076892;28;20946;-71
2021/09/06 11:32:23;;;;;;;10.10;6.33;;;23.20;92.40;;;;;;5077607;28;20458;-71
2021/09/06 11:34:50;;;;;;;8.80;6.30;;;23.40;56.50;;;;;;5077556;28;20458;-71
2021/09/06 11:37:20;;;;;;;11.30;6.00;;;23.50;38.50;;;;;;5077468;28;20454;-71
2021/09/06 11:39:48;;;;;;;9.25;6.45;;;23.60;23.00;;;;;;5076912;28;20464;-71
2021/09/06 11:42:14;;;;;;;7.90;5.93;;;23.90;12.10;;;;;;5077154;28;20207;-71
2021/09/06 11:44:41;;;;;;;6.53;5.83;;;24.30;11.90;;;;;;5077219;28;20776;-71
2021/09/06 11:47:08;;;;;;;9.17;6.63;;;24.80;7.30;;;;;;5076982;28;20516;-71
2021/09/06 11:49:36;;;;;;;8.33;5.33;;;25.40;1.00;;;;;;5076850;28;20984;-72
2021/09/06 11:52:08;;;;;;;8.10;6.27;;;25.80;1.00;;;;;;5077117;28;20532;-71
2021/09/06 11:54:42;;;;;;;8.47;5.80;;;26.30;1.00;;;;;;5076791;28;20485;-71
2021/09/06 11:57:11;;;;;;;6.43;4.90;;;26.80;1.00;;;;;;5077316;28;20438;-71
2021/09/06 11:59:39;;;;;;;8.77;6.20;;;27.20;1.00;;;;;;5077660;28;20454;-71
2021/09/06 12:02:11;;;;;;;6.20;5.60;;;27.40;1.00;;;;;;5076667;28;20497;-71
2021/09/06 12:04:39;;;;;;;6.80;6.10;;;27.50;1.00;;;;;;5076602;28;20446;-71
2021/09/06 12:07:12;;;;;;;8.03;5.83;;;27.80;1.00;;;;;;5076847;28;20465;-71
2021/09/06 12:09:39;;;;;;;6.38;5.60;;;28.30;1.00;;;;;;5076468;28;20569;-71
2021/09/06 12:12:17;;;;;;;6.57;5.67;;;28.70;1.00;;;;;;5076447;28;20572;-71
2021/09/06 12:14:45;;;;;;;6.93;5.30;;;29.30;1.00;;;;;;5076337;28;20442;-71
2021/09/06 12:17:12;;;;;;;7.63;5.37;;;29.40;1.00;;;;;;5076064;28;20794;-72
2021/09/06 12:19:42;;;;;;;7.10;6.40;;;29.40;1.00;;;;;;5076380;28;20791;-70
2021/09/06 12:22:17;;;;;;;6.37;5.70;;;28.90;1.00;;;;;;5075980;28;20461;-71
2021/09/06 12:24:44;;;;;;;8.00;5.87;;;28.60;1.00;;;;;;5075776;28;20457;-71
2021/09/06 12:27:13;;;;;;;6.00;5.40;;;28.70;1.00;;;;;;5075953;28;20486;-71
2021/09/06 12:29:42;;;;;;;10.77;6.03;;;28.90;1.00;;;;;;5075647;28;20489;-71
2021/09/06 12:32:12;;;;;;;8.57;6.03;;;29.10;1.00;;;;;;5076100;28;20292;-70
2021/09/06 12:34:41;;;;;;;8.25;6.80;;;29.30;1.00;;;;;;5075600;28;20888;-70
2021/09/06 12:37:08;;;;;;;7.30;5.13;;;29.70;1.00;;;;;;5075867;28;20200;-71
2021/09/06 12:39:37;;;;;;;9.10;5.85;;;29.90;1.00;;;;;;5075024;28;20461;-71
2021/09/06 12:42:04;;;;;;;6.40;5.80;;;30.50;1.00;;;;;;5076176;28;20282;-71
2021/09/06 12:44:32;;;;;;;9.33;5.40;;;31.00;1.00;;;;;;5076063;28;20291;-71
2021/09/06 12:47:00;;;;;;;8.47;5.60;;;31.40;1.00;;;;;;5076148;28;20455;-71
2021/09/06 12:49:27;;;;;;;5.60;4.80;;;31.80;1.00;;;;;;5075489;28;20485;-71
2021/09/06 12:51:59;;;;;;;8.13;5.50;;;31.60;1.00;;;;;;5075880;28;20461;-72